| time (UTC) | temp F | wind direction | speed knots | gust knots | rain 1hr in | rain 24hr in | rain mn in | humidity % | barometer mb |
| 20260906202541 | 102 | 242 | 0.0 | 0.9 | 0.00 | 0.00 | 0.00 | 32 | 1013.1 |
| 20260906202036 | 103 | 50 | 0.9 | 1.7 | 0.00 | 0.00 | 0.00 | 31 | 1013.0 |
| 20260906201536 | 104 | 20 | 0.0 | 0.9 | 0.00 | 0.00 | 0.00 | 30 | 1013.3 |
| 20260906201036 | 106 | 58 | 0.0 | 0.9 | 0.00 | 0.00 | 0.00 | 30 | 1013.2 |
| 20260906200532 | 107 | 38 | 0.0 | 2.6 | 0.00 | 0.00 | 0.00 | 30 | 1013.4 |
| 20260906200028 | 107 | 152 | 0.0 | 5.2 | 0.00 | 0.00 | 0.00 | 30 | 1013.4 |
| 20260906195523 | 107 | 261 | 0.0 | 3.5 | 0.00 | 0.00 | 0.00 | 29 | 1013.4 |
| 20260906195020 | 104 | 219 | 0.9 | 1.7 | 0.00 | 0.00 | 0.00 | 31 | 1013.6 |
| 20260906194515 | 104 | 38 | 0.9 | 1.7 | 0.00 | 0.00 | 0.00 | 31 | 1013.8 |
| 20260906194011 | 104 | 281 | 1.7 | 2.6 | 0.00 | 0.00 | 0.00 | 31 | 1013.6 |
| 20260906193510 | 106 | 36 | 0.9 | 1.7 | 0.00 | 0.00 | 0.00 | 30 | 1013.7 |
| 20260906193005 | 107 | 124 | 0.9 | 0.9 | 0.00 | 0.00 | 0.00 | 30 | 1014.0 |
| 20260906192501 | 107 | 37 | 0.9 | 1.7 | 0.00 | 0.00 | 0.00 | 29 | 1013.8 |
| 20260906191959 | 106 | 0 | 0.9 | 2.6 | 0.00 | 0.00 | 0.00 | 30 | 1013.9 |
| 20260906191454 | 104 | 261 | 0.9 | 1.7 | 0.00 | 0.00 | 0.00 | 31 | 1013.9 |
| 20260906190954 | 103 | 69 | 1.7 | 2.6 | 0.00 | 0.00 | 0.00 | 32 | 1013.9 |
| 20260906190453 | 106 | 91 | 0.9 | 1.7 | 0.00 | 0.00 | 0.00 | 30 | 1014.0 |
| 20260906185948 | 108 | 37 | 0.0 | 2.6 | 0.00 | 0.00 | 0.00 | 29 | 1014.0 |
| 20260906185447 | 107 | 286 | 0.9 | 3.5 | 0.00 | 0.00 | 0.00 | 30 | 1014.1 |
| 20260906184946 | 107 | 48 | 0.0 | 0.9 | 0.00 | 0.00 | 0.00 | 30 | 1014.5 |
| 20260906184442 | 106 | 272 | 0.9 | 2.6 | 0.00 | 0.00 | 0.00 | 30 | 1014.4 |
| 20260906183937 | 105 | 214 | 1.7 | 1.7 | 0.00 | 0.00 | 0.00 | 31 | 1014.5 |
| 20260906183433 | 105 | 38 | 0.0 | 1.7 | 0.00 | 0.00 | 0.00 | 32 | 1014.6 |
| 20260906182928 | 106 | 333 | 0.9 | 2.6 | 0.00 | 0.00 | 0.00 | 31 | 1014.6 |
| 20260906182424 | 104 | 13 | 0.0 | 0.9 | 0.00 | 0.00 | 0.00 | 34 | 1014.8 |
| 20260906181920 | 103 | 43 | 0.0 | 0.9 | 0.00 | 0.00 | 0.00 | 33 | 1014.8 |
| 20260906181415 | 104 | 339 | 0.9 | 3.5 | 0.00 | 0.00 | 0.00 | 33 | 1014.9 |
| 20260906180911 | 103 | 220 | 0.0 | 1.7 | 0.00 | 0.00 | 0.00 | 33 | 1015.1 |
| 20260906180405 | 101 | 117 | 0.0 | 3.5 | 0.00 | 0.00 | 0.00 | 35 | 1015.2 |
| 20260906175903 | 101 | 67 | 1.7 | 2.6 | 0.00 | 0.00 | 0.00 | 34 | 1015.3 |
| 20260906175358 | 102 | 47 | 1.7 | 3.5 | 0.00 | 0.00 | 0.00 | 34 | 1015.5 |
| 20260906174857 | 103 | 13 | 0.9 | 2.6 | 0.00 | 0.00 | 0.00 | 35 | 1015.5 |
| 20260906174356 | 104 | 259 | 0.9 | 1.7 | 0.00 | 0.00 | 0.00 | 32 | 1015.5 |
| 20260906173851 | 105 | 190 | 0.9 | 0.9 | 0.00 | 0.00 | 0.00 | 32 | 1015.5 |
| 20260906173347 | 104 | 282 | 0.9 | 2.6 | 0.00 | 0.00 | 0.00 | 33 | 1015.7 |
| 20260906172846 | 103 | 193 | 1.7 | 5.2 | 0.00 | 0.00 | 0.00 | 34 | 1015.9 |
| 20260906172342 | 103 | 318 | 2.6 | 5.2 | 0.00 | 0.00 | 0.00 | 35 | 1015.8 |
| 20260906171838 | 104 | 54 | 1.7 | 3.5 | 0.00 | 0.00 | 0.00 | 33 | 1015.8 |
| 20260906171338 | 104 | 244 | 1.7 | 1.7 | 0.00 | 0.00 | 0.00 | 34 | 1016.0 |
| 20260906170833 | 103 | 52 | 0.0 | 0.9 | 0.00 | 0.00 | 0.00 | 34 | 1015.9 |
| 20260906170329 | 103 | 51 | 0.0 | 0.9 | 0.00 | 0.00 | 0.00 | 35 | 1016.1 |
| 20260906165825 | 102 | 48 | 0.0 | 0.9 | 0.00 | 0.00 | 0.00 | 35 | 1015.9 |
| 20260906165324 | 105 | 61 | 0.0 | 1.7 | 0.00 | 0.00 | 0.00 | 34 | 1016.4 |
| 20260906164820 | 106 | 335 | 1.7 | 1.7 | 0.00 | 0.00 | 0.00 | 32 | 1016.2 |
| 20260906164319 | 105 | 45 | 0.0 | 0.9 | 0.00 | 0.00 | 0.00 | 34 | 1016.2 |
| 20260906163815 | 105 | 41 | 0.0 | 2.6 | 0.00 | 0.00 | 0.00 | 33 | 1016.3 |
| 20260906163311 | 104 | 270 | 0.9 | 2.6 | 0.00 | 0.00 | 0.00 | 35 | 1016.2 |
| 20260906162809 | 103 | 287 | 0.9 | 1.7 | 0.00 | 0.00 | 0.00 | 36 | 1016.4 |
| 20260906162308 | 102 | 253 | 1.7 | 1.7 | 0.00 | 0.00 | 0.00 | 36 | 1016.4 |
| 20260906161803 | 100 | 345 | 0.0 | 0.9 | 0.00 | 0.00 | 0.00 | 38 | 1016.3 |
| 20260906161302 | 100 | 283 | 1.7 | 2.6 | 0.00 | 0.00 | 0.00 | 38 | 1016.4 |
| 20260906160801 | 100 | 52 | 0.9 | 1.7 | 0.00 | 0.00 | 0.00 | 37 | 1016.4 |
| 20260906160255 | 100 | 266 | 0.0 | 2.6 | 0.00 | 0.00 | 0.00 | 39 | 1016.4 |
| 20260906155753 | 99 | 276 | 0.0 | 2.6 | 0.00 | 0.00 | 0.00 | 40 | 1016.5 |
| 20260906155248 | 98 | 352 | 0.0 | 0.9 | 0.00 | 0.00 | 0.00 | 42 | 1016.4 |
| 20260906154743 | 97 | 253 | 0.0 | 1.7 | 0.00 | 0.00 | 0.00 | 42 | 1016.4 |
| 20260906154238 | 95 | 275 | 0.9 | 0.9 | 0.00 | 0.00 | 0.00 | 44 | 1016.4 |
| 20260906153737 | 94 | 99 | 0.0 | 0.9 | 0.00 | 0.00 | 0.00 | 45 | 1016.4 |
| 20260906153231 | 94 | 263 | 2.6 | 3.5 | 0.00 | 0.00 | 0.00 | 46 | 1016.4 |
| 20260906152727 | 93 | 37 | 0.0 | 2.6 | 0.00 | 0.00 | 0.00 | 47 | 1016.4 |
| 20260906152221 | 92 | 273 | 1.7 | 2.6 | 0.00 | 0.00 | 0.00 | 48 | 1016.4 |
| 20260906151720 | 92 | 290 | 1.7 | 1.7 | 0.00 | 0.00 | 0.00 | 48 | 1016.3 |
| 20260906151217 | 92 | 274 | 0.9 | 1.7 | 0.00 | 0.00 | 0.00 | 49 | 1016.3 |
| 20260906150712 | 92 | 256 | 0.9 | 2.6 | 0.00 | 0.00 | 0.00 | 49 | 1016.3 |
| 20260906150207 | 91 | 295 | 0.9 | 2.6 | 0.00 | 0.00 | 0.00 | 50 | 1016.3 |
| 20260906145706 | 91 | 276 | 0.9 | 1.7 | 0.00 | 0.00 | 0.00 | 50 | 1016.2 |
| 20260906145206 | 91 | 290 | 0.0 | 1.7 | 0.00 | 0.00 | 0.00 | 51 | 1016.2 |
| 20260906144700 | 90 | 280 | 0.0 | 0.9 | 0.00 | 0.00 | 0.00 | 53 | 1016.3 |
| 20260906144155 | 89 | 229 | 1.7 | 2.6 | 0.00 | 0.00 | 0.00 | 52 | 1016.3 |
| 20260906143654 | 89 | 269 | 1.7 | 3.5 | 0.00 | 0.00 | 0.00 | 53 | 1016.5 |
| 20260906143152 | 88 | 277 | 0.0 | 1.7 | 0.00 | 0.00 | 0.00 | 55 | 1016.1 |
| 20260906142652 | 87 | 285 | 0.9 | 1.7 | 0.00 | 0.00 | 0.00 | 56 | 1016.0 |
| 20260906142147 | 86 | 265 | 0.0 | 0.9 | 0.00 | 0.00 | 0.00 | 58 | 1016.0 |
| 20260906141645 | 85 | 284 | 2.6 | 2.6 | 0.00 | 0.00 | 0.00 | 58 | 1016.3 |
| 20260906141141 | 84 | 266 | 0.0 | 1.7 | 0.00 | 0.00 | 0.00 | 60 | 1016.2 |
| 20260906140639 | 84 | 279 | 0.0 | 0.9 | 0.00 | 0.00 | 0.00 | 61 | 1016.1 |
| 20260906140135 | 83 | 267 | 0.0 | 0.0 | 0.00 | 0.00 | 0.00 | 62 | 1016.2 |
| 20260906135632 | 82 | 266 | 0.0 | 0.9 | 0.00 | 0.00 | 0.00 | 63 | 1016.0 |
| 20260906135128 | 81 | 267 | 0.0 | 0.9 | 0.00 | 0.00 | 0.00 | 64 | 1015.9 |
| 20260906134623 | 80 | 264 | 0.9 | 1.7 | 0.00 | 0.00 | 0.00 | 65 | 1015.8 |
| 20260906134118 | 79 | 251 | 0.0 | 0.0 | 0.00 | 0.00 | 0.00 | 67 | 1015.9 |
| 20260906133614 | 78 | 250 | 0.0 | 0.0 | 0.00 | 0.00 | 0.00 | 71 | 1015.8 |
| 20260906133109 | 77 | 234 | 0.0 | 0.0 | 0.00 | 0.00 | 0.00 | 73 | 1015.9 |
| 20260906132603 | 77 | 234 | 0.0 | 0.0 | 0.00 | 0.00 | 0.00 | 74 | 1015.7 |
| 20260906132059 | 76 | 234 | 0.0 | 0.0 | 0.00 | 0.00 | 0.00 | 75 | 1015.6 |
| 20260906131555 | 76 | 234 | 0.0 | 0.0 | 0.00 | 0.00 | 0.00 | 75 | 1015.8 |
| 20260906131050 | 76 | 234 | 0.0 | 0.0 | 0.00 | 0.00 | 0.00 | 76 | 1015.6 |
| 20260906130549 | 75 | 234 | 0.0 | 0.0 | 0.00 | 0.00 | 0.00 | 75 | 1015.6 |
| 20260906130045 | 75 | 234 | 0.0 | 0.0 | 0.00 | 0.00 | 0.00 | 75 | 1015.5 |
| 20260906125543 | 74 | 234 | 0.0 | 0.0 | 0.00 | 0.00 | 0.00 | 76 | 1015.6 |
| 20260906125042 | 74 | 234 | 0.0 | 0.0 | 0.00 | 0.00 | 0.00 | 76 | 1015.6 |
| 20260906124538 | 74 | 234 | 0.0 | 0.0 | 0.00 | 0.00 | 0.00 | 77 | 1015.5 |
| 20260906124033 | 73 | 234 | 0.0 | 0.0 | 0.00 | 0.00 | 0.00 | 77 | 1015.6 |
| 20260906123532 | 73 | 234 | 0.0 | 0.0 | 0.00 | 0.00 | 0.00 | 77 | 1015.4 |
| 20260906123027 | 73 | 234 | 0.0 | 0.0 | 0.00 | 0.00 | 0.00 | 77 | 1015.3 |
| 20260906122526 | 73 | 234 | 0.0 | 0.0 | 0.00 | 0.00 | 0.00 | 77 | 1015.3 |
| 20260906122023 | 73 | 234 | 0.0 | 0.0 | 0.00 | 0.00 | 0.00 | 76 | 1015.2 |
| 20260906121519 | 73 | 234 | 0.0 | 0.0 | 0.00 | 0.00 | 0.00 | 76 | 1015.0 |
| 20260906121015 | 73 | 234 | 0.0 | 0.0 | 0.00 | 0.00 | 0.00 | 76 | 1015.2 |
| 20260906120510 | 73 | 234 | 0.0 | 0.0 | 0.00 | 0.00 | 0.00 | 76 | 1015.2 |
| 20260906120008 | 72 | 234 | 0.0 | 0.0 | 0.00 | 0.00 | 0.00 | 76 | 1015.0 |
| 20260906115507 | 72 | 234 | 0.0 | 0.0 | 0.00 | 0.00 | 0.00 | 77 | 1015.0 |
| 20260906115002 | 73 | 234 | 0.0 | 0.0 | 0.00 | 0.00 | 0.00 | 77 | 1015.1 |
| 20260906114502 | 73 | 234 | 0.0 | 0.0 | 0.00 | 0.00 | 0.00 | 77 | 1015.0 |
| 20260906113958 | 73 | 234 | 0.0 | 0.0 | 0.00 | 0.00 | 0.00 | 77 | 1014.9 |
| 20260906113456 | 73 | 234 | 0.0 | 0.0 | 0.00 | 0.00 | 0.00 | 76 | 1015.1 |
| 20260906112952 | 73 | 234 | 0.0 | 0.0 | 0.00 | 0.00 | 0.00 | 76 | 1014.7 |
| 20260906112447 | 73 | 234 | 0.0 | 0.0 | 0.00 | 0.00 | 0.00 | 76 | 1014.8 |
| 20260906111943 | 73 | 234 | 0.0 | 0.0 | 0.00 | 0.00 | 0.00 | 76 | 1014.8 |
| 20260906111442 | 73 | 234 | 0.0 | 0.0 | 0.00 | 0.00 | 0.00 | 76 | 1014.8 |
| 20260906110937 | 73 | 234 | 0.0 | 0.0 | 0.00 | 0.00 | 0.00 | 76 | 1014.7 |
| 20260906110433 | 73 | 234 | 0.0 | 0.0 | 0.00 | 0.00 | 0.00 | 76 | 1014.7 |
| 20260906105932 | 73 | 234 | 0.0 | 0.0 | 0.00 | 0.00 | 0.00 | 76 | 1014.7 |
| 20260906105428 | 73 | 234 | 0.0 | 0.0 | 0.00 | 0.00 | 0.00 | 76 | 1014.6 |
| 20260906104924 | 73 | 234 | 0.0 | 0.0 | 0.00 | 0.00 | 0.00 | 76 | 1014.6 |
| 20260906104422 | 72 | 234 | 0.0 | 0.0 | 0.00 | 0.00 | 0.00 | 76 | 1014.7 |
| 20260906103921 | 73 | 234 | 0.0 | 0.0 | 0.00 | 0.00 | 0.00 | 76 | 1014.6 |
| 20260906103420 | 73 | 234 | 0.0 | 0.0 | 0.00 | 0.00 | 0.00 | 76 | 1014.5 |
| 20260906102915 | 73 | 234 | 0.0 | 0.0 | 0.00 | 0.00 | 0.00 | 76 | 1013.9 |
| 20260906102415 | 73 | 234 | 0.0 | 0.0 | 0.00 | 0.00 | 0.00 | 75 | 1014.3 |
| 20260906101909 | 73 | 234 | 0.0 | 0.0 | 0.00 | 0.00 | 0.00 | 75 | 1014.3 |
| 20260906101404 | 73 | 234 | 0.0 | 0.0 | 0.00 | 0.00 | 0.00 | 74 | 1014.0 |
| 20260906100900 | 73 | 234 | 0.0 | 0.0 | 0.00 | 0.00 | 0.00 | 74 | 1014.5 |
| 20260906100359 | 74 | 234 | 0.0 | 0.0 | 0.00 | 0.00 | 0.00 | 74 | 1014.4 |
| 20260906095854 | 74 | 234 | 0.0 | 0.0 | 0.00 | 0.00 | 0.00 | 73 | 1014.4 |
| 20260906095350 | 74 | 234 | 0.0 | 0.0 | 0.00 | 0.00 | 0.00 | 73 | 1014.3 |
| 20260906094849 | 74 | 234 | 0.0 | 0.0 | 0.00 | 0.00 | 0.00 | 73 | 1014.3 |
| 20260906094345 | 74 | 234 | 0.0 | 0.0 | 0.00 | 0.00 | 0.00 | 73 | 1014.1 |
| 20260906093841 | 74 | 234 | 0.0 | 0.0 | 0.00 | 0.00 | 0.00 | 73 | 1014.3 |
| 20260906093337 | 74 | 234 | 0.0 | 0.0 | 0.00 | 0.00 | 0.00 | 73 | 1014.3 |
| 20260906092832 | 74 | 234 | 0.0 | 0.0 | 0.00 | 0.00 | 0.00 | 74 | 1014.3 |
| 20260906092331 | 74 | 234 | 0.0 | 0.0 | 0.00 | 0.00 | 0.00 | 73 | 1014.4 |
| 20260906091827 | 74 | 234 | 0.0 | 0.0 | 0.00 | 0.00 | 0.00 | 72 | 1014.1 |
| 20260906091323 | 75 | 234 | 0.0 | 0.0 | 0.00 | 0.00 | 0.00 | 72 | 1014.4 |
| 20260906090819 | 75 | 234 | 0.0 | 0.0 | 0.00 | 0.00 | 0.00 | 72 | 1014.3 |
| 20260906090318 | 75 | 234 | 0.0 | 0.0 | 0.00 | 0.00 | 0.00 | 71 | 1014.3 |
| 20260906085813 | 75 | 234 | 0.0 | 0.0 | 0.00 | 0.00 | 0.00 | 71 | 1014.3 |
| 20260906085311 | 75 | 234 | 0.0 | 0.0 | 0.00 | 0.00 | 0.00 | 70 | 1014.3 |
| 20260906084807 | 76 | 234 | 0.0 | 0.0 | 0.00 | 0.00 | 0.00 | 70 | 1014.1 |
| 20260906084306 | 76 | 234 | 0.0 | 0.0 | 0.00 | 0.00 | 0.00 | 69 | 1014.3 |
| 20260906083801 | 76 | 234 | 0.0 | 0.0 | 0.00 | 0.00 | 0.00 | 68 | 1014.1 |
| 20260906083257 | 76 | 234 | 0.0 | 0.0 | 0.00 | 0.00 | 0.00 | 68 | 1014.0 |
| 20260906082757 | 76 | 234 | 0.0 | 0.0 | 0.00 | 0.00 | 0.00 | 68 | 1014.1 |
| 20260906082252 | 76 | 234 | 0.0 | 0.0 | 0.00 | 0.00 | 0.00 | 68 | 1014.0 |
| 20260906081748 | 76 | 234 | 0.0 | 0.0 | 0.00 | 0.00 | 0.00 | 68 | 1014.0 |
| 20260906081243 | 76 | 234 | 0.0 | 0.0 | 0.00 | 0.00 | 0.00 | 68 | 1014.0 |
| 20260906080740 | 76 | 234 | 0.0 | 0.0 | 0.00 | 0.00 | 0.00 | 68 | 1014.1 |
| 20260906080236 | 76 | 234 | 0.0 | 0.0 | 0.00 | 0.00 | 0.00 | 68 | 1014.0 |
| 20260906075736 | 76 | 234 | 0.0 | 0.0 | 0.00 | 0.00 | 0.00 | 68 | 1014.3 |
| 20260906075236 | 76 | 234 | 0.0 | 0.0 | 0.00 | 0.00 | 0.00 | 68 | 1013.9 |
| 20260906074731 | 76 | 234 | 0.0 | 0.0 | 0.00 | 0.00 | 0.00 | 69 | 1014.0 |
| 20260906074230 | 76 | 234 | 0.0 | 0.0 | 0.00 | 0.00 | 0.00 | 69 | 1014.0 |
| 20260906073730 | 76 | 234 | 0.0 | 0.0 | 0.00 | 0.00 | 0.00 | 69 | 1013.9 |
| 20260906073225 | 76 | 234 | 0.0 | 0.0 | 0.00 | 0.00 | 0.00 | 69 | 1014.0 |
| 20260906072721 | 76 | 234 | 0.0 | 0.0 | 0.00 | 0.00 | 0.00 | 69 | 1014.3 |
| 20260906072216 | 76 | 234 | 0.0 | 0.0 | 0.00 | 0.00 | 0.00 | 68 | 1014.1 |
| 20260906071712 | 76 | 234 | 0.0 | 0.0 | 0.00 | 0.00 | 0.00 | 68 | 1014.0 |
| 20260906071212 | 76 | 234 | 0.0 | 0.0 | 0.00 | 0.00 | 0.00 | 68 | 1014.1 |
| 20260906070709 | 77 | 234 | 0.0 | 0.0 | 0.00 | 0.00 | 0.00 | 68 | 1013.9 |
| 20260906070204 | 77 | 234 | 0.0 | 0.0 | 0.00 | 0.00 | 0.00 | 67 | 1014.0 |
| 20260906065703 | 77 | 234 | 0.0 | 0.0 | 0.00 | 0.00 | 0.00 | 67 | 1014.1 |
| 20260906065159 | 77 | 234 | 0.0 | 0.0 | 0.00 | 0.00 | 0.00 | 66 | 1013.8 |
| 20260906064654 | 77 | 234 | 0.0 | 0.0 | 0.00 | 0.00 | 0.00 | 66 | 1014.0 |
| 20260906064150 | 77 | 234 | 0.0 | 0.0 | 0.00 | 0.00 | 0.00 | 66 | 1013.9 |
| 20260906063645 | 78 | 234 | 0.0 | 0.0 | 0.00 | 0.00 | 0.00 | 66 | 1014.1 |
| 20260906063140 | 78 | 234 | 0.0 | 0.0 | 0.00 | 0.00 | 0.00 | 65 | 1014.0 |
| 20260906062636 | 78 | 234 | 0.0 | 0.0 | 0.00 | 0.00 | 0.00 | 65 | 1014.0 |
| 20260906062135 | 78 | 234 | 0.0 | 0.0 | 0.00 | 0.00 | 0.00 | 64 | 1014.0 |
| 20260906061632 | 78 | 234 | 0.0 | 0.0 | 0.00 | 0.00 | 0.00 | 64 | 1014.1 |
| 20260906061131 | 78 | 234 | 0.0 | 0.0 | 0.00 | 0.00 | 0.00 | 63 | 1014.0 |
| 20260906060628 | 78 | 234 | 0.0 | 0.0 | 0.00 | 0.00 | 0.00 | 63 | 1014.1 |
| 20260906060125 | 78 | 234 | 0.0 | 0.0 | 0.00 | 0.00 | 0.00 | 64 | 1014.1 |
| 20260906055620 | 78 | 234 | 0.0 | 0.0 | 0.00 | 0.00 | 0.00 | 63 | 1013.9 |
| 20260906055115 | 79 | 234 | 0.0 | 0.0 | 0.00 | 0.00 | 0.00 | 62 | 1014.0 |
| 20260906054610 | 79 | 234 | 0.0 | 0.0 | 0.00 | 0.00 | 0.00 | 62 | 1013.9 |
| 20260906054105 | 79 | 234 | 0.0 | 0.0 | 0.00 | 0.00 | 0.00 | 62 | 1013.9 |
| 20260906053602 | 80 | 234 | 0.0 | 0.0 | 0.00 | 0.00 | 0.00 | 61 | 1013.7 |
| 20260906053057 | 80 | 234 | 0.0 | 0.0 | 0.00 | 0.00 | 0.00 | 60 | 1013.8 |
| 20260906052552 | 80 | 234 | 0.0 | 0.0 | 0.00 | 0.00 | 0.00 | 59 | 1013.8 |
| 20260906052049 | 81 | 234 | 0.0 | 0.0 | 0.00 | 0.00 | 0.00 | 58 | 1013.8 |
| 20260906051544 | 82 | 234 | 0.0 | 0.0 | 0.00 | 0.00 | 0.00 | 58 | 1013.9 |
| 20260906051040 | 82 | 234 | 0.0 | 0.0 | 0.00 | 0.00 | 0.00 | 56 | 1013.7 |
| 20260906050535 | 83 | 234 | 0.0 | 0.0 | 0.00 | 0.00 | 0.00 | 55 | 1013.7 |
| 20260906050030 | 83 | 234 | 0.0 | 0.0 | 0.00 | 0.00 | 0.00 | 54 | 1013.6 |
| 20260906045528 | 84 | 234 | 0.0 | 0.0 | 0.00 | 0.00 | 0.00 | 53 | 1013.7 |
| 20260906045024 | 84 | 234 | 0.0 | 0.0 | 0.00 | 0.00 | 0.00 | 53 | 1013.7 |
| 20260906044520 | 84 | 234 | 0.0 | 0.0 | 0.00 | 0.00 | 0.00 | 53 | 1013.8 |
| 20260906044015 | 84 | 234 | 0.0 | 0.0 | 0.00 | 0.00 | 0.00 | 52 | 1014.0 |
| 20260906043511 | 84 | 234 | 0.0 | 0.0 | 0.00 | 0.00 | 0.00 | 52 | 1013.7 |
| 20260906043007 | 84 | 234 | 0.0 | 0.0 | 0.00 | 0.00 | 0.00 | 53 | 1013.8 |
| 20260906042505 | 83 | 234 | 0.0 | 0.0 | 0.00 | 0.00 | 0.00 | 54 | 1013.7 |
| 20260906042005 | 82 | 276 | 0.0 | 0.0 | 0.00 | 0.00 | 0.00 | 56 | 1013.7 |
| 20260906041502 | 82 | 276 | 0.0 | 0.0 | 0.00 | 0.00 | 0.00 | 56 | 1013.7 |
| 20260906041001 | 83 | 276 | 0.0 | 0.0 | 0.00 | 0.00 | 0.00 | 56 | 1013.7 |
| 20260906040456 | 82 | 276 | 0.0 | 0.0 | 0.00 | 0.00 | 0.00 | 56 | 1013.6 |
| 20260906035951 | 83 | 276 | 0.0 | 0.0 | 0.00 | 0.00 | 0.00 | 56 | 1013.8 |
| 20260906035447 | 83 | 276 | 0.0 | 0.0 | 0.00 | 0.00 | 0.00 | 55 | 1013.8 |
| 20260906034943 | 83 | 276 | 0.0 | 0.0 | 0.00 | 0.00 | 0.00 | 55 | 1013.8 |
| 20260906034443 | 84 | 276 | 0.0 | 0.0 | 0.00 | 0.00 | 0.00 | 54 | 1013.8 |
| 20260906033938 | 85 | 276 | 0.0 | 0.0 | 0.00 | 0.00 | 0.00 | 53 | 1013.7 |
| 20260906033438 | 85 | 276 | 0.0 | 0.0 | 0.00 | 0.00 | 0.00 | 52 | 1013.8 |
| 20260906032934 | 86 | 276 | 0.0 | 0.9 | 0.00 | 0.00 | 0.00 | 50 | 1013.9 |
| 20260906032431 | 87 | 274 | 0.0 | 0.0 | 0.00 | 0.00 | 0.00 | 49 | 1013.7 |
| 20260906031930 | 87 | 274 | 0.0 | 0.0 | 0.00 | 0.00 | 0.00 | 48 | 1013.7 |
| 20260906031426 | 87 | 274 | 0.0 | 0.0 | 0.00 | 0.00 | 0.00 | 48 | 1013.6 |
| 20260906030921 | 87 | 274 | 0.0 | 0.0 | 0.00 | 0.00 | 0.00 | 48 | 1013.5 |
| 20260906030416 | 87 | 274 | 0.0 | 0.0 | 0.00 | 0.00 | 0.00 | 48 | 1013.5 |
| 20260906025910 | 87 | 301 | 0.0 | 0.0 | 0.00 | 0.00 | 0.00 | 48 | 1013.6 |
| 20260906025405 | 87 | 301 | 0.0 | 0.9 | 0.00 | 0.00 | 0.00 | 48 | 1013.4 |
| 20260906024903 | 87 | 359 | 0.0 | 0.0 | 0.00 | 0.00 | 0.00 | 48 | 1013.6 |
| 20260906024403 | 87 | 359 | 0.0 | 0.0 | 0.00 | 0.00 | 0.00 | 48 | 1013.4 |
| 20260906023858 | 86 | 11 | 0.0 | 0.0 | 0.00 | 0.00 | 0.00 | 48 | 1013.4 |
| 20260906023355 | 86 | 34 | 0.0 | 0.0 | 0.00 | 0.00 | 0.00 | 49 | 1013.3 |
| 20260906022854 | 86 | 34 | 0.0 | 0.0 | 0.00 | 0.00 | 0.00 | 49 | 1013.4 |
| 20260906022349 | 86 | 34 | 0.0 | 0.0 | 0.00 | 0.00 | 0.00 | 50 | 1013.3 |
| 20260906021845 | 86 | 34 | 0.0 | 0.0 | 0.00 | 0.00 | 0.00 | 49 | 1013.0 |
| 20260906021344 | 87 | 34 | 0.0 | 0.0 | 0.00 | 0.00 | 0.00 | 49 | 1013.0 |
| 20260906020839 | 87 | 34 | 0.0 | 0.0 | 0.00 | 0.00 | 0.00 | 49 | 1013.0 |
| 20260906020339 | 87 | 34 | 0.0 | 0.0 | 0.00 | 0.00 | 0.00 | 48 | 1013.0 |
| 20260906015833 | 87 | 34 | 0.0 | 0.0 | 0.00 | 0.00 | 0.00 | 48 | 1013.0 |
| 20260906015333 | 88 | 34 | 0.0 | 0.0 | 0.00 | 0.00 | 0.00 | 48 | 1012.9 |
| 20260906014832 | 88 | 34 | 0.9 | 0.9 | 0.00 | 0.00 | 0.00 | 47 | 1013.0 |
| 20260906014327 | 88 | 251 | 0.0 | 0.0 | 0.00 | 0.00 | 0.00 | 46 | 1012.7 |
| 20260906013824 | 88 | 251 | 0.0 | 0.0 | 0.00 | 0.00 | 0.00 | 46 | 1012.7 |
| 20260906013319 | 89 | 252 | 0.0 | 0.0 | 0.00 | 0.00 | 0.00 | 47 | 1012.9 |
| 20260906012815 | 89 | 251 | 0.0 | 0.0 | 0.00 | 0.00 | 0.00 | 47 | 1012.7 |
| 20260906012315 | 90 | 251 | 0.0 | 0.0 | 0.00 | 0.00 | 0.00 | 45 | 1012.7 |
| 20260906011810 | 90 | 251 | 0.0 | 0.0 | 0.00 | 0.00 | 0.00 | 45 | 1012.5 |
| 20260906011310 | 90 | 251 | 0.0 | 0.0 | 0.00 | 0.00 | 0.00 | 45 | 1012.6 |
| 20260906010806 | 91 | 251 | 0.0 | 0.0 | 0.00 | 0.00 | 0.00 | 44 | 1012.6 |
| 20260906010302 | 92 | 252 | 0.0 | 0.0 | 0.00 | 0.00 | 0.00 | 43 | 1012.4 |
| 20260906005756 | 92 | 252 | 0.0 | 0.0 | 0.00 | 0.00 | 0.00 | 43 | 1012.5 |
| 20260906005255 | 93 | 251 | 0.0 | 0.0 | 0.00 | 0.00 | 0.00 | 41 | 1012.4 |
| 20260906004754 | 94 | 251 | 0.0 | 0.0 | 0.00 | 0.00 | 0.00 | 40 | 1012.3 |
| 20260906004250 | 95 | 251 | 0.0 | 0.0 | 0.00 | 0.00 | 0.00 | 39 | 1012.5 |
| 20260906003750 | 96 | 251 | 0.0 | 0.0 | 0.00 | 0.00 | 0.00 | 38 | 1012.4 |
| 20260906003245 | 97 | 251 | 0.0 | 0.0 | 0.00 | 0.00 | 0.00 | 37 | 1012.3 |
| 20260906002741 | 97 | 251 | 0.0 | 0.0 | 0.00 | 0.00 | 0.00 | 36 | 1012.3 |
| 20260906002240 | 98 | 251 | 0.0 | 0.9 | 0.00 | 0.00 | 0.00 | 36 | 1012.4 |
| 20260906001736 | 99 | 251 | 0.0 | 0.0 | 0.00 | 0.00 | 0.00 | 35 | 1012.2 |
| 20260906001231 | 100 | 251 | 0.0 | 0.0 | 0.00 | 0.00 | 0.00 | 34 | 1012.2 |
| 20260906000727 | 100 | 309 | 0.0 | 0.0 | 0.00 | 0.00 | 0.00 | 34 | 1012.2 |
| 20260906000226 | 100 | 309 | 0.0 | 0.0 | 0.00 | 0.00 | 0.00 | 34 | 1012.1 |
| 20260905235721 | 100 | 309 | 0.0 | 0.9 | 0.00 | 0.00 | 0.00 | 35 | 1012.3 |
| 20260905235215 | 99 | 302 | 0.0 | 0.0 | 0.00 | 0.00 | 0.00 | 35 | 1012.0 |
| 20260905234711 | 98 | 304 | 0.0 | 0.0 | 0.00 | 0.00 | 0.00 | 36 | 1012.2 |
| 20260905234206 | 99 | 304 | 0.0 | 0.9 | 0.00 | 0.00 | 0.00 | 35 | 1011.9 |
| 20260905233702 | 99 | 300 | 0.0 | 0.9 | 0.00 | 0.00 | 0.00 | 35 | 1011.9 |
| 20260905233201 | 100 | 188 | 0.0 | 0.0 | 0.00 | 0.00 | 0.00 | 34 | 1012.0 |
| 20260905232656 | 101 | 188 | 0.0 | 0.9 | 0.00 | 0.00 | 0.00 | 34 | 1012.0 |
| 20260905232152 | 102 | 171 | 0.0 | 0.9 | 0.00 | 0.00 | 0.00 | 32 | 1012.0 |
| 20260905231143 | 105 | 132 | 0.9 | 1.7 | 0.00 | 0.00 | 0.00 | 30 | 1012.0 |
| 20260905230639 | 105 | 74 | 0.9 | 1.7 | 0.00 | 0.00 | 0.00 | 30 | 1011.8 |
| 20260905230137 | 105 | 52 | 0.9 | 0.9 | 0.00 | 0.00 | 0.00 | 30 | 1011.8 |
| 20260905225636 | 105 | 153 | 0.9 | 2.6 | 0.00 | 0.00 | 0.00 | 30 | 1011.8 |
| 20260905225131 | 105 | 16 | 0.9 | 2.6 | 0.00 | 0.00 | 0.00 | 29 | 1011.8 |
| 20260905224631 | 105 | 228 | 0.0 | 5.2 | 0.00 | 0.00 | 0.00 | 29 | 1012.0 |
| 20260905224130 | 106 | 51 | 0.9 | 3.5 | 0.00 | 0.00 | 0.00 | 29 | 1011.8 |
| 20260905223627 | 106 | 275 | 0.9 | 3.5 | 0.00 | 0.00 | 0.00 | 28 | 1011.7 |
| 20260905223124 | 106 | 245 | 0.9 | 2.6 | 0.00 | 0.00 | 0.00 | 29 | 1011.8 |
| 20260905222619 | 107 | 235 | 0.9 | 1.7 | 0.00 | 0.00 | 0.00 | 28 | 1011.8 |
| 20260905222113 | 107 | 294 | 0.0 | 1.7 | 0.00 | 0.00 | 0.00 | 29 | 1011.8 |
| 20260905221609 | 107 | 72 | 0.9 | 0.9 | 0.00 | 0.00 | 0.00 | 28 | 1011.8 |
| 20260905221106 | 108 | 264 | 0.9 | 1.7 | 0.00 | 0.00 | 0.00 | 28 | 1012.0 |
| 20260905220601 | 108 | 258 | 0.0 | 0.9 | 0.00 | 0.00 | 0.00 | 28 | 1012.0 |
| 20260905220057 | 107 | 263 | 1.7 | 3.5 | 0.00 | 0.00 | 0.00 | 28 | 1012.0 |
| 20260905215556 | 106 | 75 | 1.7 | 1.7 | 0.00 | 0.00 | 0.00 | 29 | 1012.1 |
| 20260905215052 | 106 | 341 | 0.9 | 0.9 | 0.00 | 0.00 | 0.00 | 29 | 1011.9 |
| 20260905214548 | 106 | 126 | 0.0 | 1.7 | 0.00 | 0.00 | 0.00 | 29 | 1012.2 |
| 20260905214043 | 107 | 223 | 0.9 | 1.7 | 0.00 | 0.00 | 0.00 | 29 | 1012.3 |
| 20260905213538 | 107 | 181 | 0.9 | 1.7 | 0.00 | 0.00 | 0.00 | 29 | 1012.3 |
| 20260905213033 | 106 | 95 | 0.9 | 1.7 | 0.00 | 0.00 | 0.00 | 30 | 1012.4 |
| 20260905212528 | 106 | 79 | 0.9 | 3.5 | 0.00 | 0.00 | 0.00 | 29 | 1012.4 |
| 20260905212027 | 107 | 64 | 1.7 | 2.6 | 0.00 | 0.00 | 0.00 | 29 | 1012.4 |
| 20260905211523 | 106 | 227 | 1.7 | 2.6 | 0.00 | 0.00 | 0.00 | 29 | 1012.5 |
| 20260905211019 | 107 | 120 | 0.9 | 1.7 | 0.00 | 0.00 | 0.00 | 29 | 1012.7 |
| 20260905210514 | 107 | 166 | 0.0 | 2.6 | 0.00 | 0.00 | 0.00 | 29 | 1012.7 |
| 20260905210014 | 108 | 288 | 1.7 | 2.6 | 0.00 | 0.00 | 0.00 | 28 | 1012.7 |
| 20260905205514 | 108 | 68 | 0.0 | 0.9 | 0.00 | 0.00 | 0.00 | 29 | 1012.8 |
| 20260905205013 | 107 | 142 | 0.9 | 1.7 | 0.00 | 0.00 | 0.00 | 29 | 1012.8 |
| 20260905204509 | 106 | 186 | 1.7 | 2.6 | 0.00 | 0.00 | 0.00 | 30 | 1013.0 |
| 20260905204008 | 106 | 343 | 0.0 | 0.9 | 0.00 | 0.00 | 0.00 | 29 | 1013.0 |
| 20260905203503 | 106 | 190 | 0.9 | 1.7 | 0.00 | 0.00 | 0.00 | 29 | 1013.0 |
| 20260905202959 | 106 | 82 | 0.9 | 1.7 | 0.00 | 0.00 | 0.00 | 29 | 1013.4 |